WetterOnline ( http://www.wetteronline.de )

Wetter aktuell Hollabrunn

Aktuelles Wetter: Wien / Hohe Warte (200m)

6-stündlich | Neueste Meldungen
Ortszeit Temperatur Wetter
Di, 19.02. 13:00 13.4° C fast wolkenlos
Di, 19.02. 7:00 -0.8° C wolkenlos
Di, 19.02. 1:00 1.2° C wolkenlos
Mo, 18.02. 19:00 6.7° C wolkenlos
Mo, 18.02. 13:00 8.5° C leicht bewölkt
Mo, 18.02. 7:00 -0.6° C leicht bewölkt
Mo, 18.02. 1:00 1.1° C leicht bewölkt
So, 17.02. 19:00 5.6° C wolkenlos
Ortszeit Temperatur Wetter
Di, 19.02. 18:00 11.8° C leicht bewölkt
Di, 19.02. 17:00 12.6° C leicht bewölkt
Di, 19.02. 16:00 14.0° C fast wolkenlos
Di, 19.02. 15:00 14.5° C fast wolkenlos
Di, 19.02. 14:00 14.3° C fast wolkenlos
Di, 19.02. 13:00 13.4° C fast wolkenlos
Ortszeit Relative Feuchte Sichtweite
Di, 19.02. 13:00 39% 18 km
Di, 19.02. 7:00 95% 1.1 km
Di, 19.02. 1:00 87% 10 km
Mo, 18.02. 19:00 72% 14 km
Mo, 18.02. 13:00 65% 7 km
Mo, 18.02. 7:00 96% 2.9 km
Mo, 18.02. 1:00 92% 12 km
So, 17.02. 19:00 76% 10 km
Ortszeit Relative Feuchte Sichtweite
Di, 19.02. 18:00 43% 40 km
Di, 19.02. 17:00 41% 40 km
Di, 19.02. 16:00 39% 30 km
Di, 19.02. 15:00 37% 30 km
Di, 19.02. 14:00 38% 20 km
Di, 19.02. 13:00 39% 18 km
Ortszeit Niederschlagsmenge Niederschlagsart
Di, 19.02. 13:00 0.0 l/m2 in 24 Std. -
Di, 19.02. 7:00 0.0 l/m2 in 24 Std. -
Di, 19.02. 1:00 0.0 l/m2 in 24 Std. -
Mo, 18.02. 19:00 0.0 l/m2 in 24 Std. -
Mo, 18.02. 13:00 0.0 l/m2 in 24 Std. -
Mo, 18.02. 7:00 0.0 l/m2 in 24 Std. -
Mo, 18.02. 1:00 0.0 l/m2 in 24 Std. -
So, 17.02. 19:00 0.0 l/m2 in 24 Std. -
Ortszeit Niederschlagsmenge Niederschlagsart
Di, 19.02. 18:00 keine Meldung -
Di, 19.02. 17:00 keine Meldung -
Di, 19.02. 16:00 keine Meldung -
Di, 19.02. 15:00 keine Meldung -
Di, 19.02. 14:00 keine Meldung -
Di, 19.02. 13:00 keine Meldung -
Ortszeit Stärke Spitze Richtung
km/h Bft. km/h Grad Sektor
Di, 19.02. 13:00 25 4 50 270° W
Di, 19.02. 7:00 0 0 - - -
Di, 19.02. 1:00 4 1 - 70° O
Mo, 18.02. 19:00 7 2 - 70° O
Mo, 18.02. 13:00 4 1 - 80° O
Mo, 18.02. 7:00 4 1 - 240° SW
Mo, 18.02. 1:00 4 1 - 160° S
So, 17.02. 19:00 4 1 - 10° N
Ortszeit Stärke Spitze Richtung
km/h Bft. km/h Grad Sektor
Di, 19.02. 18:00 14 3 - 280° W
Di, 19.02. 17:00 11 2 - 260° W
Di, 19.02. 16:00 11 2 - 260° W
Di, 19.02. 15:00 14 3 - 280° W
Di, 19.02. 14:00 22 4 - 270° W
Di, 19.02. 13:00 25 4 50 270° W
Ortszeit Untergrenze Bedeckung Gattung
total tief tief mittel hoch
Di, 19.02. 13:00 9000 m 1/8 0/8 - - Ci
Di, 19.02. 7:00 - 0/8 0/8 - - -
Di, 19.02. 1:00 - 0/8 0/8 - - -
Mo, 18.02. 19:00 - 0/8 0/8 - - -
Mo, 18.02. 13:00 10500 m 5/8 0/8 - - Ci
Mo, 18.02. 7:00 8700 m 6/8 0/8 - - Ci
Mo, 18.02. 1:00 7800 m 3/8 0/8 - - Ci
So, 17.02. 19:00 - 0/8 0/8 - - -
Ortszeit Bedeckungsgrad in Achtel und Wolkenuntergrenze
Di, 19.02. 18:00 2(9000m)
Di, 19.02. 17:00 2(9000m)
Di, 19.02. 16:00 1(9000m)
Di, 19.02. 15:00 1(9000m)
Di, 19.02. 14:00 1(9000m)
Di, 19.02. 13:00 1(9000m)
Ortszeit Luftdruck NN (hPa) Tendenz (hPa in 3 Std.)
Di, 19.02. 13:00 1019 - 0,7
Di, 19.02. 7:00 1020 + 0,4
Di, 19.02. 1:00 1020 - 0,6
Mo, 18.02. 19:00 1021 - 0,5
Mo, 18.02. 13:00 1024 - 1,8
Mo, 18.02. 7:00 1026 0,0
Mo, 18.02. 1:00 1026 - 0,3
So, 17.02. 19:00 1026 + 0,1
Ortszeit Luftdruck NN (hPa) Tendenz (hPa in 3 Std.)
Di, 19.02. 18:00 1018 - 0,5
Di, 19.02. 17:00 1018 - 0,5
Di, 19.02. 16:00 1019 - 0,6
Di, 19.02. 15:00 1019 - 1,0
Di, 19.02. 14:00 1019 - 1,0
Di, 19.02. 13:00 1019 - 0,7
Ortszeit Schneehöhe (cm)
Di, 19.02. 13:00 -
Di, 19.02. 7:00 -
Di, 19.02. 1:00 -
Mo, 18.02. 19:00 -
Mo, 18.02. 13:00 -
Mo, 18.02. 7:00 -
Mo, 18.02. 1:00 -
So, 17.02. 19:00 -
Ortszeit Schneehöhe (cm)
Di, 19.02. 18:00 -
Di, 19.02. 17:00 -
Di, 19.02. 16:00 -
Di, 19.02. 15:00 -
Di, 19.02. 14:00 -
Di, 19.02. 13:00 -
Link zu dieser Seite / Seite empfehlen

Das Wetter in ...